Time;durP1;ratioP1;P1;durP2;ratioP2;P2;SDS_P1;SDS_P2;PMS_P1;PMS_P2;Temp;Humidity;BMP_temperature;BMP_pressure;BME280_temperature;BME280_humidity;BME280_pressure;Samples;Min_cycle;Max_cycle;Signal;HPM_P1;HPM_P2
2022/10/01 00:02:07;;;;;;;6.47;4.27;;;9.80;99.90;;;12.79;55.45;97314.13;5023836;28;20052;-45
2022/10/01 00:04:36;;;;;;;7.47;4.60;;;9.70;99.90;;;12.75;55.23;97310.13;5023864;28;20359;-46
2022/10/01 00:07:08;;;;;;;5.67;4.80;;;9.70;99.90;;;12.75;55.50;97302.13;5020766;28;20046;-46
2022/10/01 00:09:36;;;;;;;5.93;4.87;;;9.80;99.90;;;12.79;55.36;97300.75;5022175;28;20038;-46
2022/10/01 00:12:04;;;;;;;6.47;4.83;;;9.80;99.90;;;12.77;55.14;97301.94;5023879;28;20045;-47
2022/10/01 00:14:32;;;;;;;5.27;4.10;;;9.70;99.90;;;12.80;55.23;97299.72;5022711;28;20053;-48
2022/10/01 00:17:00;;;;;;;6.77;4.20;;;9.70;99.90;;;12.75;55.41;97298.63;5023350;28;20271;-47
2022/10/01 00:19:28;;;;;;;7.13;4.53;;;9.60;99.90;;;12.73;55.38;97296.13;5022633;28;20251;-47
2022/10/01 00:21:55;;;;;;;6.83;4.90;;;9.60;99.90;;;12.72;55.16;97297.16;5023712;28;20049;-50
2022/10/01 00:24:23;;;;;;;7.10;4.37;;;9.60;99.90;;;12.67;55.20;97302.22;5023967;28;20064;-47
2022/10/01 00:26:52;;;;;;;6.53;4.37;;;9.50;99.90;;;12.67;55.25;97307.56;5023053;28;20050;-46
2022/10/01 00:29:19;;;;;;;7.97;4.63;;;9.50;99.90;;;12.69;55.27;97297.50;5023303;28;20045;-48
2022/10/01 00:31:47;;;;;;;5.10;4.10;;;9.50;99.90;;;12.71;55.51;97298.16;5022499;28;20340;-46
2022/10/01 00:34:15;;;;;;;5.77;4.37;;;9.60;99.90;;;12.67;55.60;97290.72;5024165;28;20052;-49
2022/10/01 00:36:43;;;;;;;5.70;4.20;;;9.50;99.90;;;12.66;55.45;97302.38;5022850;28;20054;-48
2022/10/01 00:39:11;;;;;;;7.63;4.53;;;9.60;99.90;;;12.70;55.43;97303.69;5023160;28;20050;-48
2022/10/01 00:41:40;;;;;;;5.63;4.53;;;9.60;99.90;;;12.70;55.59;97304.53;5023378;28;20049;-46
2022/10/01 00:44:33;;;;;;;6.43;4.47;;;9.60;99.90;;;12.70;55.52;97314.38;5022334;28;20050;-46
2022/10/01 00:47:38;;;;;;;5.57;3.97;;;9.60;99.90;;;12.67;55.54;97320.09;5022896;28;20053;-50
2022/10/01 00:50:15;;;;;;;6.07;4.60;;;9.70;99.90;;;12.72;55.36;97329.22;5021960;28;20066;-46
2022/10/01 00:52:50;;;;;;;6.27;4.50;;;9.70;99.90;;;12.67;55.85;97325.41;5022269;28;20060;-47
2022/10/01 00:55:25;;;;;;;6.03;4.37;;;9.70;99.90;;;12.62;55.90;97325.97;5022294;28;20064;-46
2022/10/01 00:57:55;;;;;;;6.20;4.30;;;9.60;99.90;;;12.66;56.07;97323.75;5021601;28;20045;-45
2022/10/01 01:00:23;;;;;;;6.73;4.43;;;9.60;99.90;;;12.69;55.96;97321.53;5023436;28;20252;-46
2022/10/01 01:02:51;;;;;;;5.07;4.40;;;9.70;99.90;;;12.66;55.69;97318.41;5022993;28;20045;-46
2022/10/01 01:05:20;;;;;;;6.13;4.60;;;9.70;99.90;;;12.65;56.11;97314.91;5023987;28;20053;-47
2022/10/01 01:07:51;;;;;;;8.03;4.60;;;9.60;99.90;;;12.69;56.04;97304.69;5022644;28;20060;-49
2022/10/01 01:10:33;;;;;;;5.43;4.27;;;9.70;99.90;;;12.72;55.66;97304.34;5021745;28;20042;-45
2022/10/01 01:13:22;;;;;;;6.93;4.13;;;9.70;99.90;;;12.72;55.86;97304.34;5021722;28;20072;-46
2022/10/01 01:15:59;;;;;;;5.90;4.10;;;9.70;99.90;;;12.73;55.77;97295.31;5023243;28;20053;-46
2022/10/01 01:18:44;;;;;;;8.27;4.77;;;9.60;99.90;;;12.70;55.84;97296.50;5021181;28;20046;-47
2022/10/01 01:21:37;;;;;;;6.27;4.70;;;9.60;99.90;;;12.73;56.00;97295.31;5022342;28;20050;-48
2022/10/01 01:24:38;;;;;;;5.27;4.30;;;9.70;99.90;;;12.74;55.72;97295.13;5023137;28;20328;-47
2022/10/01 01:27:36;;;;;;;5.43;4.10;;;9.70;99.90;;;12.75;55.77;97290.59;5022181;28;20053;-48
2022/10/01 01:30:13;;;;;;;5.80;4.60;;;9.70;99.90;;;12.76;55.67;97287.75;5022497;28;20397;-49
2022/10/01 01:33:02;;;;;;;5.20;4.13;;;9.70;99.90;;;12.73;55.83;97282.78;5021483;28;20293;-49
2022/10/01 01:35:58;;;;;;;6.53;4.50;;;9.70;99.90;;;12.72;55.91;97269.63;5023144;28;20049;-48
2022/10/01 01:38:39;;;;;;;5.37;4.13;;;9.70;99.90;;;12.73;55.80;97269.41;5021046;28;20048;-46
2022/10/01 01:41:09;;;;;;;5.43;3.77;;;9.70;99.90;;;12.75;55.89;97263.91;5021448;28;20056;-47
2022/10/01 01:43:43;;;;;;;5.17;3.60;;;9.70;99.90;;;12.78;55.96;97258.19;5021327;28;20227;-46
2022/10/01 01:46:16;;;;;;;6.73;3.97;;;9.80;99.90;;;12.78;55.85;97251.00;5021573;28;20049;-46
2022/10/01 01:48:49;;;;;;;4.07;3.28;;;9.80;99.90;;;12.83;56.18;97257.63;5020865;28;20072;-48
2022/10/01 01:51:47;;;;;;;7.47;3.67;;;9.80;99.90;;;12.86;55.95;97251.94;5022879;28;20046;-47
2022/10/01 01:54:17;;;;;;;5.37;4.00;;;9.90;99.90;;;12.88;55.77;97252.56;5026192;28;20052;-48
2022/10/01 01:56:47;;;;;;;5.97;3.50;;;9.80;99.90;;;12.84;55.91;97249.44;5024987;28;20267;-46
2022/10/01 01:59:18;;;;;;;6.90;4.20;;;9.90;99.90;;;12.87;55.91;97245.56;5027028;28;20050;-48
2022/10/01 02:01:48;;;;;;;4.33;3.70;;;9.90;99.90;;;12.89;55.64;97244.38;5026611;28;20053;-47
2022/10/01 02:04:26;;;;;;;4.53;3.60;;;9.90;99.90;;;12.86;55.83;97241.25;5026277;28;20050;-48
2022/10/01 02:07:27;;;;;;;4.90;3.43;;;9.90;99.90;;;12.89;55.89;97239.03;5025136;28;20058;-46
2022/10/01 02:10:26;;;;;;;4.40;3.30;;;9.90;99.90;;;12.94;55.70;97233.94;5026062;28;20045;-46
2022/10/01 02:13:50;;;;;;;4.90;3.43;;;9.90;99.90;;;12.90;55.58;97234.53;5011704;28;20352;-48
2022/10/01 02:16:52;;;;;;;4.97;3.07;;;9.90;99.90;;;12.97;55.70;97238.94;5025263;28;20048;-49
2022/10/01 02:19:43;;;;;;;4.23;3.30;;;9.90;99.90;;;12.98;55.53;97226.41;5022075;28;20054;-47
2022/10/01 02:22:18;;;;;;;4.30;3.57;;;9.90;99.90;;;13.02;55.55;97225.00;5025077;28;20054;-47
2022/10/01 02:24:52;;;;;;;6.23;3.43;;;10.00;99.90;;;13.00;55.40;97229.72;5025954;28;20248;-46
2022/10/01 02:27:24;;;;;;;3.97;3.05;;;10.10;99.90;;;12.98;55.35;97224.53;5025560;28;20057;-49
2022/10/01 02:30:01;;;;;;;4.17;2.83;;;10.10;99.90;;;12.98;55.48;97224.53;5025652;28;20034;-48
2022/10/01 02:32:30;;;;;;;4.33;3.10;;;10.10;99.90;;;12.99;55.38;97228.06;5024841;28;20370;-46
2022/10/01 02:35:00;;;;;;;3.43;2.90;;;10.10;99.90;;;13.01;55.53;97218.03;5024363;28;20248;-46
2022/10/01 02:37:28;;;;;;;4.87;3.10;;;10.10;99.90;;;13.03;55.47;97213.31;5025298;28;20049;-49
2022/10/01 02:39:58;;;;;;;3.00;2.70;;;10.20;99.90;;;13.00;55.18;97222.50;5024624;28;20352;-48
2022/10/01 02:42:29;;;;;;;4.40;2.73;;;10.20;99.90;;;13.05;55.36;97216.63;5024452;28;20054;-47
2022/10/01 02:45:01;;;;;;;4.23;3.10;;;10.20;99.90;;;13.08;55.00;97218.91;5024523;28;20344;-46
2022/10/01 02:47:40;;;;;;;3.43;2.67;;;10.30;99.90;;;13.08;55.07;97220.75;5024104;28;20225;-46
2022/10/01 02:50:08;;;;;;;3.53;2.73;;;10.20;99.90;;;13.09;54.91;97209.88;5024924;28;20050;-49
2022/10/01 02:52:44;;;;;;;3.17;2.47;;;10.20;99.90;;;13.11;54.74;97209.72;5024513;28;20048;-46
2022/10/01 02:55:34;;;;;;;3.37;2.50;;;10.20;99.90;;;13.14;54.73;97212.84;5024381;28;20046;-51
2022/10/01 02:58:03;;;;;;;4.50;2.90;;;10.20;99.90;;;13.13;54.45;97218.38;5023708;28;20050;-48
2022/10/01 03:00:31;;;;;;;3.30;2.53;;;10.20;99.90;;;13.14;54.62;97214.66;5025312;28;20056;-50
2022/10/01 03:02:59;;;;;;;3.33;2.70;;;10.20;99.90;;;13.12;54.55;97211.34;5008169;28;20049;-46
2022/10/01 03:05:27;;;;;;;4.07;2.87;;;10.20;99.90;;;13.12;54.57;97204.16;5025166;28;20045;-47
2022/10/01 03:07:54;;;;;;;3.00;2.47;;;10.20;99.90;;;13.10;54.59;97203.50;5023362;28;20045;-46
2022/10/01 03:10:22;;;;;;;4.13;2.43;;;10.10;99.90;;;13.09;54.55;97215.22;5023998;28;20056;-47
2022/10/01 03:12:50;;;;;;;4.27;2.73;;;10.10;99.90;;;13.07;54.74;97211.91;5025126;28;20068;-46
2022/10/01 03:15:19;;;;;;;3.57;2.50;;;10.10;99.90;;;13.06;54.48;97206.75;5025971;28;20337;-48
2022/10/01 03:17:51;;;;;;;3.47;2.53;;;10.10;99.90;;;13.06;54.65;97199.56;5024672;28;20050;-47
2022/10/01 03:20:19;;;;;;;3.50;2.97;;;10.10;99.90;;;13.06;54.58;97198.75;5024102;28;20060;-46
2022/10/01 03:22:47;;;;;;;3.30;2.67;;;10.10;99.90;;;13.08;54.64;97189.50;5024773;28;20064;-48
2022/10/01 03:25:16;;;;;;;5.23;2.27;;;10.10;99.90;;;13.10;54.17;97189.31;5024834;28;20050;-46
2022/10/01 03:27:44;;;;;;;3.77;2.97;;;10.00;99.90;;;13.08;54.23;97188.69;5024292;28;20050;-47
2022/10/01 03:30:13;;;;;;;3.27;2.40;;;10.00;99.90;;;13.10;54.12;97187.47;5024609;28;20067;-49
2022/10/01 03:32:41;;;;;;;3.63;2.53;;;10.00;99.90;;;13.12;54.28;97187.28;5023973;28;20049;-47
2022/10/01 03:35:09;;;;;;;4.93;3.57;;;10.10;99.90;;;13.12;54.33;97197.97;5024566;28;20056;-46
2022/10/01 03:37:37;;;;;;;3.57;2.60;;;10.10;99.90;;;13.09;54.39;97187.69;5024035;28;20046;-46
2022/10/01 03:40:05;;;;;;;3.40;2.47;;;10.00;99.90;;;13.07;54.38;97187.88;5024844;28;20213;-54
2022/10/01 03:42:33;;;;;;;4.00;3.37;;;10.00;99.90;;;13.11;54.35;97178.47;5024566;28;20343;-47
2022/10/01 03:45:01;;;;;;;4.43;3.10;;;10.00;99.90;;;13.13;54.24;97171.06;5024487;28;20052;-50
2022/10/01 03:47:29;;;;;;;4.53;2.40;;;10.00;99.90;;;13.12;54.15;97163.25;5024020;28;20056;-48
2022/10/01 03:49:58;;;;;;;3.67;2.57;;;10.10;99.90;;;13.12;54.28;97164.06;5024592;28;20416;-46
2022/10/01 03:52:25;;;;;;;3.03;1.87;;;10.10;99.90;;;13.11;54.19;97154.41;5024085;28;20067;-50
2022/10/01 03:54:53;;;;;;;5.10;2.43;;;10.10;99.90;;;13.16;54.01;97146.66;5024278;28;20056;-48
2022/10/01 03:57:21;;;;;;;2.83;1.70;;;10.10;99.90;;;13.18;54.24;97155.31;5023692;28;20259;-47
2022/10/01 03:59:49;;;;;;;3.60;2.47;;;10.10;99.90;;;13.20;54.07;97155.94;5024077;28;20038;-47
2022/10/01 04:02:17;;;;;;;4.93;3.33;;;10.20;99.90;;;13.18;53.74;97166.00;5023151;28;20042;-48
2022/10/01 04:04:45;;;;;;;3.77;2.80;;;10.20;99.90;;;13.20;54.12;97155.94;5024416;28;20052;-51
2022/10/01 04:07:13;;;;;;;2.90;2.07;;;10.20;99.90;;;13.24;54.10;97156.41;5023665;28;20053;-46
2022/10/01 04:09:40;;;;;;;3.63;2.20;;;10.30;99.90;;;13.26;53.97;97148.16;5024072;28;20048;-49
2022/10/01 04:12:08;;;;;;;2.60;2.00;;;10.30;99.90;;;13.28;53.71;97141.63;5023027;28;20345;-49
2022/10/01 04:14:36;;;;;;;3.43;2.50;;;10.30;99.90;;;13.27;53.83;97142.63;5023352;28;20104;-47
2022/10/01 04:17:04;;;;;;;2.67;2.10;;;10.30;99.60;;;13.29;53.86;97140.59;5022266;28;20052;-47
2022/10/01 04:19:31;;;;;;;3.10;2.20;;;10.30;99.70;;;13.30;53.67;97142.31;5023487;28;20344;-49
2022/10/01 04:21:59;;;;;;;5.17;2.00;;;10.30;99.80;;;13.25;53.83;97139.31;5024563;28;20053;-47
2022/10/01 04:24:27;;;;;;;2.27;1.73;;;10.30;99.30;;;13.28;53.92;97143.44;5023961;28;20056;-49
2022/10/01 04:26:55;;;;;;;2.83;2.10;;;10.30;99.30;;;13.29;53.86;97139.78;5024154;28;20058;-46
2022/10/01 04:29:22;;;;;;;3.30;2.10;;;10.30;99.80;;;13.30;53.63;97131.59;5023621;28;20045;-46
2022/10/01 04:31:52;;;;;;;3.40;2.20;;;10.30;99.50;;;13.34;53.91;97138.22;5023388;28;20328;-48
2022/10/01 04:34:51;;;;;;;2.80;1.80;;;10.30;99.80;;;13.38;53.53;97139.50;5024319;28;20060;-46
2022/10/01 04:37:07;;;;;;;2.43;1.67;;;10.40;98.80;;;13.41;53.38;97132.09;5023232;28;20050;-47
2022/10/01 04:39:35;;;;;;;4.10;2.63;;;10.40;98.00;;;13.33;53.56;97128.53;5024070;28;20048;-50
2022/10/01 04:42:03;;;;;;;4.50;2.67;;;10.40;97.80;;;13.37;53.34;97135.16;5023506;28;20058;-47
2022/10/01 04:44:31;;;;;;;3.50;2.40;;;10.40;98.60;;;13.38;53.66;97131.47;5023635;28;20048;-48
2022/10/01 04:46:59;;;;;;;4.30;1.90;;;10.40;97.90;;;13.31;53.55;97130.56;5023320;28;20068;-48
2022/10/01 04:49:27;;;;;;;6.20;2.53;;;10.40;97.30;;;13.31;53.59;97130.56;5023245;28;20052;-47
2022/10/01 04:51:54;;;;;;;2.30;1.60;;;10.30;98.00;;;13.34;53.47;97126.72;5023982;28;20052;-49
2022/10/01 04:54:22;;;;;;;2.90;1.50;;;10.40;97.70;;;13.38;53.19;97133.31;5023314;28;20049;-48
2022/10/01 04:56:50;;;;;;;1.90;1.60;;;10.50;97.00;;;13.34;53.54;97127.53;5022770;28;20042;-49
2022/10/01 04:59:18;;;;;;;3.13;2.00;;;10.50;96.00;;;13.34;53.24;97116.00;5023029;28;20044;-46
2022/10/01 05:01:46;;;;;;;2.97;2.00;;;10.50;95.90;;;13.37;53.13;97129.81;5023159;28;20378;-51
2022/10/01 05:04:14;;;;;;;4.57;2.20;;;10.50;95.30;;;13.38;53.05;97136.00;5022919;28;20057;-47
2022/10/01 05:06:41;;;;;;;5.53;3.33;;;10.60;94.70;;;13.24;53.43;97135.00;5022179;28;20356;-49
2022/10/01 05:09:09;;;;;;;6.03;2.40;;;10.50;93.60;;;13.32;53.19;97132.25;5022960;28;20045;-48
2022/10/01 05:11:37;;;;;;;2.70;2.10;;;10.50;94.00;;;13.38;53.07;97138.66;5022802;28;20064;-48
2022/10/01 05:14:05;;;;;;;4.17;3.13;;;10.50;94.50;;;13.42;53.15;97128.44;5022927;28;20054;-47
2022/10/01 05:16:33;;;;;;;5.57;3.00;;;10.60;94.80;;;13.47;53.20;97129.47;5021209;28;20042;-47
2022/10/01 05:19:01;;;;;;;5.13;3.03;;;10.60;94.60;;;13.52;52.93;97129.75;5021770;28;20319;-48
2022/10/01 05:21:29;;;;;;;5.07;3.27;;;10.60;93.50;;;13.54;52.88;97124.22;5022823;28;20213;-48
2022/10/01 05:23:57;;;;;;;5.90;3.17;;;10.70;94.50;;;13.59;53.03;97122.59;5022819;28;20053;-49
2022/10/01 05:26:26;;;;;;;9.17;4.27;;;10.60;94.00;;;13.59;52.92;97119.94;5021368;28;20050;-47
2022/10/01 05:28:54;;;;;;;7.13;4.50;;;10.60;93.80;;;13.63;52.73;97119.53;5022304;28;20054;-51
2022/10/01 05:31:22;;;;;;;4.83;2.77;;;10.70;94.00;;;13.66;52.63;97117.31;5022598;28;20248;-48
2022/10/01 05:33:50;;;;;;;3.87;2.80;;;10.70;93.90;;;13.68;52.60;97120.59;5022738;28;20350;-46
2022/10/01 05:36:18;;;;;;;7.00;3.97;;;10.70;93.80;;;13.73;52.76;97120.88;5023553;28;20053;-47
2022/10/01 05:38:51;;;;;;;9.97;4.87;;;10.80;93.90;;;13.75;52.58;97120.69;5022293;28;20048;-49
2022/10/01 05:41:19;;;;;;;3.93;2.40;;;10.70;93.70;;;13.82;52.53;97123.38;5022424;28;20059;-49
2022/10/01 05:43:48;;;;;;;3.73;1.97;;;10.70;94.00;;;13.83;52.55;97122.38;5021543;28;20602;-49
2022/10/01 05:46:16;;;;;;;7.27;2.37;;;10.80;94.00;;;13.84;52.59;97116.84;5021296;28;20050;-48
2022/10/01 05:48:50;;;;;;;3.40;2.17;;;10.80;93.20;;;13.85;52.63;97104.28;5022131;28;20056;-49
2022/10/01 05:51:18;;;;;;;3.05;2.10;;;10.80;93.70;;;13.87;52.53;97099.56;5021366;28;20049;-48
2022/10/01 05:53:48;;;;;;;9.27;3.07;;;10.80;93.70;;;13.83;52.55;97093.78;5022320;28;20072;-47
2022/10/01 05:56:17;;;;;;;5.57;2.73;;;10.80;94.10;;;13.86;52.72;97087.19;5022139;28;20340;-48
2022/10/01 05:58:45;;;;;;;5.30;2.73;;;10.80;94.40;;;13.88;52.67;97090.50;5022069;28;20052;-48
2022/10/01 06:01:13;;;;;;;3.97;2.40;;;10.80;94.50;;;13.85;52.85;97078.34;5022717;28;20042;-48
2022/10/01 06:03:42;;;;;;;3.67;2.37;;;10.80;94.80;;;13.87;52.85;97072.81;5022386;28;20038;-47
2022/10/01 06:06:10;;;;;;;6.00;2.90;;;10.80;95.10;;;13.89;52.95;97078.78;5021982;28;20040;-50
2022/10/01 06:08:38;;;;;;;5.27;2.53;;;10.80;95.00;;;13.91;53.07;97082.91;5020551;28;20049;-48
2022/10/01 06:11:06;;;;;;;3.93;2.10;;;10.80;95.70;;;13.93;53.17;97072.03;5019893;28;20044;-48
2022/10/01 06:13:35;;;;;;;2.47;2.23;;;10.70;96.20;;;13.91;53.24;97069.53;5023177;28;20046;-48
2022/10/01 06:16:03;;;;;;;2.90;2.03;;;10.80;96.60;;;13.93;53.12;97072.84;5022273;28;20046;-47
2022/10/01 06:18:30;;;;;;;2.20;2.00;;;10.80;96.90;;;13.94;53.42;97058.44;5020854;28;20056;-50
2022/10/01 06:20:58;;;;;;;2.50;2.07;;;10.80;97.30;;;13.96;53.26;97066.28;5021994;28;20040;-50
2022/10/01 06:23:27;;;;;;;2.23;1.67;;;10.80;97.70;;;13.95;53.33;97067.28;5022157;28;20042;-51
2022/10/01 06:25:55;;;;;;;2.17;1.80;;;10.80;97.50;;;13.97;53.44;97067.91;5021486;28;20099;-48
2022/10/01 06:28:22;;;;;;;2.30;2.10;;;10.80;97.50;;;13.99;53.30;97063.19;5021593;28;20341;-50
2022/10/01 06:30:50;;;;;;;3.70;2.20;;;10.80;97.70;;;13.99;53.26;97056.00;5021892;28;20048;-47
2022/10/01 06:33:18;;;;;;;3.40;2.40;;;10.80;97.40;;;14.00;53.64;97072.91;5022045;28;20048;-47
2022/10/01 06:35:49;;;;;;;2.83;1.80;;;10.80;98.10;;;14.01;53.47;97073.72;5021035;28;20042;-51
2022/10/01 06:38:20;;;;;;;3.20;1.97;;;10.80;98.50;;;14.01;53.62;97069.19;5024498;28;20053;-48
2022/10/01 06:40:59;;;;;;;2.93;2.03;;;10.80;98.60;;;13.98;53.56;97070.41;5025584;28;20052;-48
2022/10/01 06:43:30;;;;;;;2.40;1.60;;;10.80;98.70;;;13.96;53.55;97061.75;5040832;28;20054;-52
2022/10/01 06:46:02;;;;;;;4.13;2.50;;;10.70;98.60;;;13.96;53.68;97061.75;5025569;28;20049;-50
2022/10/01 06:48:31;;;;;;;3.93;2.20;;;10.80;98.70;;;13.91;53.94;97068.72;5025186;28;20055;-48
2022/10/01 06:50:59;;;;;;;3.93;2.20;;;10.80;98.80;;;13.92;53.75;97065.84;5024469;28;20056;-46
2022/10/01 06:53:27;;;;;;;3.67;1.87;;;10.80;98.80;;;13.93;53.68;97070.16;5025238;28;20352;-49
2022/10/01 06:55:55;;;;;;;3.43;2.20;;;10.80;98.30;;;13.95;53.59;97069.97;5025333;28;20045;-48
2022/10/01 06:58:25;;;;;;;2.37;2.03;;;10.80;98.80;;;13.95;53.78;97070.78;5024971;28;20052;-50
2022/10/01 07:01:02;;;;;;;5.03;3.03;;;10.80;98.80;;;13.97;53.89;97073.28;5024903;28;20048;-48
2022/10/01 07:03:30;;;;;;;2.53;2.03;;;10.70;99.20;;;13.97;53.78;97062.56;5025680;28;20054;-47
2022/10/01 07:06:04;;;;;;;3.03;1.70;;;10.70;99.80;;;13.95;53.93;97070.78;5025463;28;20054;-50
2022/10/01 07:08:32;;;;;;;2.65;1.92;;;10.70;99.90;;;13.97;54.00;97058.03;5024759;28;20377;-49
2022/10/01 07:11:03;;;;;;;3.70;1.70;;;10.70;99.90;;;13.95;53.97;97054.72;5025853;28;20057;-47
2022/10/01 07:13:31;;;;;;;2.50;1.60;;;10.80;99.90;;;13.93;54.14;97053.28;5025084;28;20044;-52
2022/10/01 07:16:03;;;;;;;2.67;1.40;;;10.80;99.90;;;13.92;54.00;97055.16;5024993;28;20049;-51
2022/10/01 07:18:31;;;;;;;2.73;1.77;;;10.80;99.90;;;13.94;54.00;97047.75;5024800;28;20060;-50
2022/10/01 07:20:58;;;;;;;3.07;1.60;;;10.80;99.60;;;13.94;54.19;97045.06;5025693;28;20049;-52
2022/10/01 07:23:26;;;;;;;1.70;1.40;;;10.90;99.60;;;13.93;54.13;97042.59;5025010;28;20046;-52
2022/10/01 07:25:54;;;;;;;1.50;1.23;;;10.80;99.90;;;13.94;54.26;97038.91;5023587;28;20049;-50
2022/10/01 07:28:24;;;;;;;2.10;1.40;;;10.90;99.90;;;13.96;54.43;97032.31;5025005;28;20065;-51
2022/10/01 07:31:02;;;;;;;2.00;1.30;;;10.90;99.90;;;13.97;54.39;97035.81;5024854;28;20049;-52
2022/10/01 07:33:30;;;;;;;1.80;1.50;;;10.90;99.90;;;13.95;54.32;97041.34;5025435;28;20054;-48
2022/10/01 07:36:04;;;;;;;3.33;1.60;;;10.90;99.90;;;13.92;54.61;97035.56;5024679;28;20136;-50
2022/10/01 07:38:32;;;;;;;;;;;10.90;99.90;;;13.96;54.41;97043.03;5025066;28;20056;-47
2022/10/01 07:41:03;;;;;;;2.30;1.73;;;10.90;99.90;;;13.93;54.67;97053.28;5024514;28;19926;-52
2022/10/01 07:43:33;;;;;;;6.67;3.67;;;10.80;99.90;;;13.91;54.84;97058.00;5024592;28;20046;-48
2022/10/01 07:46:03;;;;;;;3.47;2.33;;;10.80;99.90;;;13.94;54.77;97053.09;5023501;28;20046;-52
2022/10/01 07:48:31;;;;;;;2.53;1.80;;;10.90;99.90;;;13.95;55.04;97060.09;5022072;28;20048;-49
2022/10/01 07:50:59;;;;;;;3.00;1.60;;;10.90;99.90;;;14.03;55.12;97058.28;5024288;28;20366;-47
2022/10/01 07:53:27;;;;;;;2.77;1.40;;;11.00;99.90;;;14.04;55.20;97051.91;5024237;28;20105;-47
2022/10/01 07:55:55;;;;;;;2.60;1.63;;;11.00;99.90;;;14.08;55.11;97045.97;5023017;28;20048;-48
2022/10/01 07:58:23;;;;;;;1.50;1.20;;;11.00;99.90;;;14.07;55.13;97044.28;5023795;28;20240;-53
2022/10/01 08:00:56;;;;;;;2.00;1.27;;;11.00;99.90;;;14.09;55.30;97052.13;5024360;28;20275;-51
2022/10/01 08:03:24;;;;;;;2.97;1.77;;;11.00;99.90;;;14.11;55.40;97052.75;5024195;28;20049;-52
2022/10/01 08:05:53;;;;;;;2.00;1.73;;;11.00;99.90;;;14.19;55.41;97044.59;5023905;28;20056;-48
2022/10/01 08:08:21;;;;;;;2.50;1.40;;;11.10;99.90;;;14.27;55.26;97052.44;5023449;28;20060;-51
2022/10/01 08:10:49;;;;;;;1.37;1.13;;;11.20;99.90;;;14.19;55.23;97057.97;5024168;28;20252;-47
2022/10/01 08:13:17;;;;;;;2.00;1.60;;;11.10;99.90;;;14.16;55.50;97061.84;5023897;28;20107;-50
2022/10/01 08:15:49;;;;;;;2.33;1.40;;;11.10;99.90;;;14.14;55.81;97057.72;5023987;28;20049;-50
2022/10/01 08:18:17;;;;;;;1.53;1.43;;;11.10;99.90;;;13.99;56.20;97069.38;5024461;28;20057;-52
2022/10/01 08:20:45;;;;;;;1.30;1.20;;;11.10;99.90;;;14.02;56.29;97068.16;5024329;28;20061;-51
2022/10/01 08:23:16;;;;;;;1.67;1.30;;;11.10;99.90;;;14.12;56.20;97068.63;5022676;28;20050;-50
2022/10/01 08:25:46;;;;;;;2.97;1.40;;;11.20;99.90;;;14.02;56.46;97072.69;5022660;28;20056;-47
2022/10/01 08:28:15;;;;;;;2.57;1.70;;;11.10;99.90;;;14.12;56.42;97073.16;5023241;28;20042;-48
2022/10/01 08:30:43;;;;;;;2.33;1.40;;;11.20;99.90;;;13.94;56.94;97089.75;5023646;28;20060;-52
2022/10/01 08:33:13;;;;;;;2.33;1.60;;;11.10;99.90;;;13.97;57.19;97092.00;5038656;28;20048;-48
2022/10/01 08:35:42;;;;;;;1.73;1.33;;;11.10;99.90;;;13.92;57.38;97089.06;5023647;28;20042;-47
2022/10/01 08:38:11;;;;;;;1.73;1.30;;;11.00;99.90;;;13.90;57.60;97091.13;5023638;28;20060;-48
2022/10/01 08:40:49;;;;;;;1.80;1.70;;;11.00;99.90;;;13.90;57.66;97094.66;5023342;28;20048;-48
2022/10/01 08:43:38;;;;;;;1.40;1.30;;;11.00;99.90;;;13.92;57.68;97089.06;5023575;28;20232;-50
2022/10/01 08:46:17;;;;;;;1.40;1.00;;;11.00;99.90;;;13.89;57.87;97093.00;5023383;28;20240;-49
2022/10/01 08:49:11;;;;;;;1.77;1.47;;;10.90;99.90;;;13.80;58.15;97099.50;5021760;28;20231;-48
2022/10/01 08:52:02;;;;;;;2.45;1.33;;;10.90;99.90;;;13.93;57.79;97099.59;5023244;28;20056;-47
2022/10/01 08:54:38;;;;;;;2.57;1.90;;;10.90;99.90;;;13.97;58.06;97100.84;5022148;28;20045;-50
2022/10/01 08:57:24;;;;;;;2.30;1.77;;;11.00;99.90;;;14.01;57.75;97100.47;5023568;28;20054;-51
2022/10/01 08:59:56;;;;;;;2.27;1.87;;;10.90;99.90;;;14.07;57.86;97097.00;5022083;28;20048;-50
2022/10/01 09:02:38;;;;;;;2.08;1.35;;;11.00;99.90;;;13.94;58.60;97093.25;5022823;28;20049;-49
2022/10/01 09:05:34;;;;;;;4.40;2.23;;;11.00;99.90;;;14.10;57.93;97089.41;5023149;28;20248;-49
2022/10/01 09:08:42;;;;;;;3.20;1.70;;;11.00;99.90;;;14.18;57.90;97099.13;5022830;28;20044;-47
2022/10/01 09:12:04;;;;;;;1.38;1.20;;;11.10;99.90;;;14.24;57.78;97086.81;5018854;28;20054;-52
2022/10/01 09:14:38;;;;;;;1.63;1.20;;;11.30;99.90;;;14.30;57.96;97083.34;5021434;28;20060;-51
2022/10/01 09:17:42;;;;;;;2.10;1.58;;;11.30;99.90;;;14.39;57.77;97082.16;5022414;28;20042;-49
2022/10/01 09:20:52;;;;;;;2.10;1.50;;;11.40;99.90;;;14.45;57.71;97084.03;5022877;28;20046;-49
2022/10/01 09:23:44;;;;;;;1.38;1.25;;;11.40;99.90;;;14.56;57.42;97091.53;5025716;28;20058;-47
2022/10/01 09:26:12;;;;;;;1.55;1.23;;;11.50;99.90;;;14.61;57.67;97077.53;5020978;28;20340;-52
2022/10/01 09:28:40;;;;;;;1.60;1.43;;;11.50;99.90;;;14.65;57.76;97083.31;5021410;28;20049;-50
2022/10/01 09:31:25;;;;;;;1.85;1.17;;;11.60;99.90;;;14.67;57.83;97089.28;5021767;28;20056;-49
2022/10/01 09:34:18;;;;;;;2.40;1.10;;;11.60;99.90;;;14.63;57.79;97099.59;5021576;28;20252;-48
2022/10/01 09:37:20;;;;;;;1.83;1.30;;;11.60;99.90;;;14.63;58.16;97104.94;5021118;28;20054;-49
2022/10/01 09:40:22;;;;;;;1.55;1.20;;;11.60;99.90;;;14.64;58.03;97103.09;5021678;28;20056;-49
2022/10/01 09:42:50;;;;;;;3.50;1.58;;;11.60;99.90;;;14.55;58.41;97102.41;5021578;28;20054;-48
2022/10/01 09:45:20;;;;;;;1.45;1.35;;;11.50;99.90;;;14.52;58.84;97110.84;5021325;28;20046;-47
2022/10/01 09:47:53;;;;;;;1.30;1.10;;;11.50;99.90;;;14.59;58.62;97114.41;5021327;28;20057;-50
2022/10/01 09:50:29;;;;;;;;;;;11.60;99.90;;;14.67;58.23;97116.09;5021799;28;20394;-50
2022/10/01 09:53:00;;;;;;;1.65;1.33;;;11.60;99.90;;;14.46;59.12;97112.47;5021716;28;19921;-51
2022/10/01 09:55:41;;;;;;;2.67;1.45;;;11.50;99.90;;;14.34;59.69;97111.38;5021318;28;20052;-50
2022/10/01 09:58:23;;;;;;;2.42;2.10;;;11.50;99.90;;;14.52;59.12;97106.31;5021967;28;20046;-50
2022/10/01 10:00:53;;;;;;;2.88;1.70;;;11.50;99.90;;;14.56;59.55;97096.03;5021341;28;20060;-48
2022/10/01 10:03:30;;;;;;;1.70;1.33;;;11.60;99.90;;;14.66;59.19;97095.69;5021851;28;20058;-47
2022/10/01 10:05:59;;;;;;;1.63;1.20;;;11.70;99.90;;;14.73;58.89;97089.34;5022138;28;20050;-50
2022/10/01 10:08:32;;;;;;;2.50;1.13;;;11.80;99.90;;;14.83;59.08;97088.94;5020752;28;20243;-49
2022/10/01 10:11:10;;;;;;;2.13;1.05;;;11.80;99.90;;;14.90;58.71;97081.75;5021669;28;20060;-50
2022/10/01 10:13:54;;;;;;;1.00;0.90;;;11.90;99.90;;;14.93;58.82;97081.34;5025783;28;20056;-49
2022/10/01 10:16:30;;;;;;;1.33;1.05;;;12.00;99.90;;;14.95;58.69;97079.28;5024969;28;20048;-50
2022/10/01 10:19:25;;;;;;;1.33;1.00;;;12.00;99.90;;;14.93;58.72;97075.16;5024852;28;20046;-46
2022/10/01 10:21:56;;;;;;;;;;;12.00;99.90;;;14.98;58.40;97078.03;5027376;28;20056;-49
2022/10/01 10:24:34;;;;;;;0.77;0.77;;;12.00;99.90;;;14.84;58.47;97069.16;5025499;28;19917;-50
2022/10/01 10:27:19;;;;;;;0.82;0.82;;;12.00;99.90;;;14.87;58.72;97058.03;5025363;28;20045;-49
2022/10/01 10:29:47;;;;;;;0.95;0.73;;;12.10;99.90;;;14.87;58.83;97068.75;5025623;28;20045;-49
2022/10/01 10:32:24;;;;;;;0.60;0.60;;;12.10;99.90;;;14.99;58.74;97084.25;5024916;28;20341;-48
2022/10/01 10:34:58;;;;;;;1.42;0.80;;;12.20;99.90;;;15.02;58.86;97084.66;5024544;28;20044;-49
2022/10/01 10:37:35;;;;;;;0.70;0.70;;;12.30;99.90;;;15.07;58.72;97090.25;5024509;28;20052;-47
2022/10/01 10:40:07;;;;;;;0.47;0.47;;;12.40;99.90;;;15.22;58.67;97091.91;5024872;28;20054;-46
2022/10/01 10:42:37;;;;;;;1.58;0.70;;;12.40;99.90;;;15.25;58.47;97089.63;5024650;28;20046;-49
2022/10/01 10:45:17;;;;;;;1.83;0.70;;;12.50;99.90;;;15.27;58.38;97089.44;5024569;28;20348;-50
2022/10/01 10:47:50;;;;;;;0.60;0.60;;;12.50;99.90;;;15.35;58.09;97087.41;5025234;28;20408;-49